Wetterdaten: aktuell Samstag, 15.08.2020 19:30
Datum Zeit Temp. A. Luft Gew. Boden Gew. Boden A. Feuchte A. Luftdruck Regen Wind Richtung Richtung Sonnenschein ET UV Solar Taupunkt Windchill Windben Empfang
15.08.2020 19:30 24.1 C 26.1 C 0.0 C 0.0 C 71 % 1013.9 hPa 0.0 l/m 2.1 km/h (1 Bft) O-NO 62 0 min 0.127 mm 0.0 UV-I 78 W/m 18.5 C 24.1 C 8.0 km/h (2 Bft) 100.00 %
15.08.2020 18:30 25.0 C 28.9 C 0.0 C 0.0 C 70 % 1014.1 hPa 0.0 l/m 4.9 km/h (1 Bft) NO 35 60 min 0.279 mm 0.6 UV-I 163 W/m 19.1 C 25.0 C 11.3 km/h (2 Bft) 99.08 %
15.08.2020 17:30 25.8 C 30.6 C 0.0 C 0.0 C 65 % 1014.0 hPa 0.0 l/m 3.7 km/h (1 Bft) NO 56 60 min 0.305 mm 1.3 UV-I 244 W/m 18.7 C 25.8 C 8.0 km/h (2 Bft) 98.29 %
15.08.2020 16:30 25.7 C 27.2 C 0.0 C 0.0 C 67 % 1014.2 hPa 0.0 l/m 0.0 km/h (0 Bft) N-NW 347 60 min 0.229 mm 2.7 UV-I 641 W/m 19.1 C 25.7 C 1.6 km/h (1 Bft) 100.00 %
15.08.2020 15:30 24.7 C 26.1 C 0.0 C 0.0 C 72 % 1014.7 hPa 0.0 l/m 3.4 km/h (1 Bft) N-NW 342 60 min 0.152 mm 2.3 UV-I 293 W/m 19.3 C 24.7 C 8.0 km/h (2 Bft) 97.25 %
15.08.2020 14:30 23.5 C 26.7 C 0.0 C 0.0 C 71 % 1015.1 hPa 0.0 l/m 4.7 km/h (1 Bft) W-NW 283 55 min 0.356 mm 1.6 UV-I 182 W/m 17.9 C 23.5 C 11.3 km/h (2 Bft) 97.44 %
15.08.2020 13:30 26.1 C 30.0 C 0.0 C 0.0 C 67 % 1015.2 hPa 0.0 l/m 2.4 km/h (1 Bft) W-NW 290 60 min 0.533 mm 5.9 UV-I 999 W/m 19.5 C 26.1 C 6.4 km/h (2 Bft) 97.44 %
15.08.2020 12:30 25.4 C 28.9 C 0.0 C 0.0 C 70 % 1015.6 hPa 0.0 l/m 6.5 km/h (2 Bft) SW 221 60 min 0.432 mm 6.1 UV-I 798 W/m 19.5 C 25.4 C 12.9 km/h (3 Bft) 96.58 %
15.08.2020 11:30 24.2 C 27.2 C 0.0 C 0.0 C 74 % 1016.0 hPa 0.0 l/m 3.3 km/h (1 Bft) SW 215 60 min 0.330 mm 4.8 UV-I 706 W/m 19.3 C 24.2 C 11.3 km/h (2 Bft) 97.44 %
15.08.2020 10:30 22.8 C 24.4 C 0.0 C 0.0 C 83 % 1016.1 hPa 0.0 l/m 6.7 km/h (2 Bft) W 262 60 min 0.001 mm 3.5 UV-I 606 W/m 19.8 C 22.7 C 11.3 km/h (2 Bft) 100.00 %
15.08.2020 09:30 21.3 C 20.6 C 0.0 C 0.0 C 88 % 1016.1 hPa 0.0 l/m 6.4 km/h (2 Bft) W-SW 240 60 min 0.127 mm 2.1 UV-I 511 W/m 19.2 C 21.3 C 9.7 km/h (2 Bft) 100.00 %
15.08.2020 08:30 18.2 C 17.8 C 0.0 C 0.0 C 97 % 1016.1 hPa 0.0 l/m 6.0 km/h (2 Bft) SW 234 0 min 0.025 mm 0.7 UV-I 138 W/m 17.7 C 18.2 C 9.7 km/h (2 Bft) 100.00 %
15.08.2020 07:30 17.6 C 17.2 C 0.0 C 0.0 C 96 % 1015.8 hPa 0.0 l/m 7.1 km/h (2 Bft) SW 215 0 min 0.000 mm 0.0 UV-I 54 W/m 17.0 C 17.3 C 9.7 km/h (2 Bft) 97.50 %
15.08.2020 06:30 17.4 C 17.2 C 0.0 C 0.0 C 96 % 1015.7 hPa 0.0 l/m 2.3 km/h (1 Bft) W-SW 239 0 min 0.000 mm 0.0 UV-I 10 W/m 16.8 C 17.4 C 6.4 km/h (2 Bft) 98.20 %
15.08.2020 05:30 17.8 C 17.2 C 0.0 C 0.0 C 96 % 1015.4 hPa 0.0 l/m 2.7 km/h (1 Bft) SW 235 0 min 0.000 mm 0.0 UV-I 0 W/m 17.2 C 17.8 C 6.4 km/h (2 Bft) 98.29 %
15.08.2020 04:30 17.9 C 17.2 C 0.0 C 0.0 C 96 % 1015.6 hPa 0.0 l/m 1.1 km/h (1 Bft) SW 235 0 min 0.000 mm 0.0 UV-I 0 W/m 17.3 C 17.9 C 3.2 km/h (1 Bft) 97.44 %
15.08.2020 03:30 18.1 C 17.2 C 0.0 C 0.0 C 96 % 1015.8 hPa 0.0 l/m 4.2 km/h (1 Bft) SW 227 0 min 0.000 mm 0.0 UV-I 0 W/m 17.5 C 18.1 C 8.0 km/h (2 Bft) 98.33 %
15.08.2020 02:30 18.1 C 17.2 C 0.0 C 0.0 C 96 % 1015.7 hPa 0.2 l/m 1.1 km/h (1 Bft) W 265 0 min 0.000 mm 0.0 UV-I 0 W/m 17.5 C 18.1 C 4.8 km/h (1 Bft) 97.44 %
15.08.2020 01:30 17.9 C 17.2 C 0.0 C 0.0 C 96 % 1016.1 hPa 0.0 l/m 0.0 km/h (0 Bft) W 265 0 min 0.000 mm 0.0 UV-I 0 W/m 17.3 C 17.9 C 0.0 km/h (0 Bft) 96.58 %
15.08.2020 00:30 18.1 C 17.8 C 0.0 C 0.0 C 95 % 1016.2 hPa 0.0 l/m 0.0 km/h (0 Bft) W 265 0 min 0.000 mm 0.0 UV-I 0 W/m 17.3 C 18.1 C 0.0 km/h (0 Bft) 99.15 %
14.08.2020 23:30 18.4 C 18.3 C 0.0 C 0.0 C 95 % 1015.6 hPa 0.0 l/m 0.0 km/h (0 Bft) W 265 0 min 0.000 mm 0.0 UV-I 0 W/m 17.6 C 18.4 C 0.0 km/h (0 Bft) 97.44 %
14.08.2020 22:30 18.3 C 18.3 C 0.0 C 0.0 C 94 % 1015.7 hPa 0.4 l/m 3.8 km/h (1 Bft) W-SW 257 0 min 0.000 mm 0.0 UV-I 0 W/m 17.3 C 18.3 C 8.0 km/h (2 Bft) 97.44 %
14.08.2020 21:30 18.6 C 18.9 C 0.0 C 0.0 C 94 % 1015.4 hPa 1.8 l/m 4.5 km/h (1 Bft) S-SW 196 0 min 0.000 mm 0.0 UV-I 0 W/m 17.6 C 18.6 C 8.0 km/h (2 Bft) 100.00 %
14.08.2020 20:30 18.6 C 20.6 C 0.0 C 0.0 C 90 % 1015.5 hPa 0.8 l/m 0.0 km/h (0 Bft) W 281 0 min 0.025 mm 0.0 UV-I 0 W/m 16.9 C 18.6 C 0.0 km/h (0 Bft) 100.00 %
14.08.2020 20:00 19.0 C 21.1 C 0.0 C 0.0 C 90 % 1015.4 hPa 0.0 l/m 5.7 km/h (1 Bft) W 259 0 min 0.000 mm 0.0 UV-I 0 W/m 17.3 C 19.0 C 11.3 km/h (2 Bft) 100.00 %
_ Min-Zeit 06:35 01:10 20:00 20:00 17:45 19:10 - 20:30 - - - - - - 06:15 07:30 20:30 02:20
Minimum _ 17.3 C 17.2 C 0.0 C 0.0 C 62 % 1013.9 hPa - 0.0 km/h (0 Bft) - - - - - - 16.8 C 17.3 C 0.0 km/h (0 Bft) 95.73 %
_ Max-Zeit 16:55 13:20 20:00 20:00 07:40 00:50 20:10 14:00 - - 08:35 13:05 12:50 13:10 12:05 17:05 13:40 20:00
Maximum _ 26.6 C 30.6 C 0.0 C 0.0 C 97 % 1016.3 hPa 0.2 l/m 8.3 km/h
W (2 Bft)
- - 5 min 0.533 mm 6.5 UV-I 1013 W/m 20.6 C 26.6 C 16.1 km/h
N-NW (3 Bft)
100.00 %
Durchschnitt _ 20.8 C 21.9 C 0.0 C 0.0 C 86 % 1015.4 hPa #3.2 l/m 3.0 km/h (1 Bft) SW - #9:55 h #3.175 mm 2.7 UV-I 371 W/m 18.1 C 20.8 C 7.1 km/h (2 Bft) 98.40 %